createdAt,value
2023-04-15T00:00:58.427Z,3.03
2023-04-15T00:03:27.340Z,2.03
2023-04-15T00:05:55.746Z,2.10
2023-04-15T00:08:24.003Z,2.00
2023-04-15T00:10:52.396Z,1.67
2023-04-15T00:13:21.887Z,2.00
2023-04-15T00:15:49.963Z,2.20
2023-04-15T00:18:18.090Z,2.55
2023-04-15T00:20:46.209Z,2.13
2023-04-15T00:23:14.726Z,2.25
2023-04-15T00:25:43.237Z,1.95
2023-04-15T00:28:12.508Z,2.30
2023-04-15T00:30:42.292Z,2.65
2023-04-15T00:33:11.217Z,2.50
2023-04-15T00:35:39.378Z,2.70
2023-04-15T00:38:08.238Z,2.08
2023-04-15T00:40:36.931Z,2.65
2023-04-15T00:43:05.936Z,2.90
2023-04-15T00:45:34.539Z,2.85
2023-04-15T00:48:05.050Z,3.03
2023-04-15T00:50:34.616Z,2.92
2023-04-15T00:53:02.943Z,2.83
2023-04-15T00:55:31.605Z,2.53
2023-04-15T00:57:59.768Z,2.83
2023-04-15T01:00:28.031Z,2.95
2023-04-15T01:02:56.582Z,2.65
2023-04-15T01:05:27.115Z,3.30
2023-04-15T01:07:56.647Z,3.20
2023-04-15T01:10:24.795Z,2.60
2023-04-15T01:12:53.098Z,3.17
2023-04-15T01:15:21.976Z,3.42
2023-04-15T01:17:50.205Z,3.25
2023-04-15T01:20:18.955Z,3.67
2023-04-15T01:22:49.145Z,3.50
2023-04-15T01:25:20.149Z,3.83
2023-04-15T01:27:49.836Z,3.50
2023-04-15T01:30:18.143Z,3.67
2023-04-15T01:32:46.261Z,3.78
2023-04-15T01:35:14.684Z,3.88
2023-04-15T01:37:42.773Z,3.60
2023-04-15T01:40:11.522Z,3.80
2023-04-15T01:42:39.607Z,3.72
2023-04-15T01:45:10.860Z,3.63
2023-04-15T01:47:39.621Z,4.22
2023-04-15T01:50:08.673Z,3.30
2023-04-15T01:52:37.098Z,3.38
2023-04-15T01:55:06.555Z,3.60
2023-04-15T01:57:34.688Z,3.65
2023-04-15T02:00:03.666Z,3.67
2023-04-15T02:02:33.557Z,3.55
2023-04-15T02:05:01.820Z,2.70
2023-04-15T02:07:32.857Z,2.97
2023-04-15T02:10:00.934Z,2.70
2023-04-15T02:12:29.295Z,2.92
2023-04-15T02:14:57.413Z,2.92
2023-04-15T02:17:25.821Z,2.97
2023-04-15T02:19:57.799Z,2.60
2023-04-15T02:22:26.180Z,2.70
2023-04-15T02:24:54.407Z,3.15
2023-04-15T02:27:22.916Z,3.00
2023-04-15T02:29:51.711Z,3.10
2023-04-15T02:32:20.486Z,2.53
2023-04-15T02:34:48.552Z,2.60
2023-04-15T02:37:19.562Z,2.70
2023-04-15T02:39:47.714Z,2.80
2023-04-15T02:42:16.371Z,3.15
2023-04-15T02:44:44.441Z,3.42
2023-04-15T02:47:12.522Z,2.70
2023-04-15T02:49:40.906Z,2.80
2023-04-15T02:52:10.021Z,2.97
2023-04-15T02:54:39.878Z,2.70
2023-04-15T02:57:08.371Z,2.67
2023-04-15T02:59:36.440Z,2.78
2023-04-15T03:02:04.857Z,2.63
2023-04-15T03:04:32.940Z,3.05
2023-04-15T03:07:01.878Z,2.63
2023-04-15T03:09:30.579Z,2.28
2023-04-15T03:12:00.047Z,2.67
2023-04-15T03:14:28.568Z,2.67
2023-04-15T03:16:56.888Z,2.58
2023-04-15T03:19:25.332Z,2.55
2023-04-15T03:21:53.472Z,2.53
2023-04-15T03:24:22.140Z,2.20
2023-04-15T03:26:50.268Z,2.50
2023-04-15T03:29:19.989Z,2.30
2023-04-15T03:31:48.051Z,2.95
2023-04-15T03:34:16.447Z,2.85
2023-04-15T03:36:44.528Z,2.63
2023-04-15T03:39:13.059Z,2.22
2023-04-15T03:41:41.381Z,2.75
2023-04-15T03:44:09.491Z,2.63
2023-04-15T03:46:39.266Z,2.97
2023-04-15T03:49:08.958Z,2.42
2023-04-15T03:51:37.400Z,2.30
2023-04-15T03:54:05.744Z,2.70
2023-04-15T03:56:34.042Z,2.80
2023-04-15T03:59:02.408Z,2.40
2023-04-15T04:01:30.752Z,2.42
2023-04-15T04:04:00.340Z,2.15
2023-04-15T04:06:28.720Z,2.28
2023-04-15T04:08:56.833Z,2.45
2023-04-15T04:11:25.311Z,2.38
2023-04-15T04:13:53.680Z,2.30
2023-04-15T04:16:22.105Z,2.35
2023-04-15T04:18:50.334Z,1.85
2023-04-15T04:21:20.446Z,2.70
2023-04-15T04:23:48.561Z,2.22
2023-04-15T04:26:16.710Z,2.47
2023-04-15T04:28:44.801Z,2.40
2023-04-15T04:31:13.214Z,2.67
2023-04-15T04:33:41.792Z,2.40
2023-04-15T04:36:09.918Z,2.38
2023-04-15T04:38:39.402Z,2.28
2023-04-15T04:41:07.548Z,2.30
2023-04-15T04:43:36.066Z,2.65
2023-04-15T04:46:04.696Z,2.42
2023-04-15T04:48:33.161Z,2.83
2023-04-15T04:51:01.309Z,2.05
2023-04-15T04:53:29.932Z,2.88
2023-04-15T04:55:59.679Z,2.00
2023-04-15T04:58:27.748Z,2.05
2023-04-15T05:00:56.371Z,2.15
2023-04-15T05:03:24.868Z,1.77
2023-04-15T05:05:53.291Z,2.00
2023-04-15T05:08:21.508Z,2.65
2023-04-15T05:10:50.080Z,2.45
2023-04-15T05:13:19.538Z,2.20
2023-04-15T05:15:48.329Z,2.10
2023-04-15T05:18:16.596Z,2.05
2023-04-15T05:20:44.715Z,2.53
2023-04-15T05:23:13.055Z,2.13
2023-04-15T05:25:41.762Z,1.88
2023-04-15T05:28:10.136Z,2.45
2023-04-15T05:30:40.237Z,1.75
2023-04-15T05:33:08.822Z,1.90
2023-04-15T05:35:36.938Z,1.77
2023-04-15T05:38:05.047Z,1.80
2023-04-15T05:40:33.431Z,1.52
2023-04-15T05:43:01.580Z,2.00
2023-04-15T05:45:29.833Z,1.73
2023-04-15T05:47:59.388Z,1.95
2023-04-15T05:50:27.497Z,2.13
2023-04-15T05:52:56.270Z,1.70
2023-04-15T05:55:24.660Z,1.85
2023-04-15T05:57:52.804Z,1.88
2023-04-15T06:00:21.317Z,1.98
2023-04-15T06:02:49.523Z,2.05
2023-04-15T06:05:19.223Z,2.00
2023-04-15T06:07:48.730Z,1.85
2023-04-15T06:10:16.974Z,1.77
2023-04-15T06:12:45.609Z,1.92
2023-04-15T06:15:14.038Z,1.80
2023-04-15T06:17:42.601Z,1.90
2023-04-15T06:20:11.829Z,2.35
2023-04-15T06:22:41.376Z,1.92
2023-04-15T06:25:10.988Z,1.95
2023-04-15T06:27:39.568Z,1.85
2023-04-15T06:30:09.057Z,2.00
2023-04-15T06:32:37.736Z,2.30
2023-04-15T06:35:06.700Z,1.83
2023-04-15T06:37:34.992Z,2.17
2023-04-15T06:40:05.196Z,1.95
2023-04-15T06:42:34.376Z,1.88
2023-04-15T06:45:02.816Z,1.73
2023-04-15T06:47:30.948Z,2.08
2023-04-15T06:49:59.319Z,2.03
2023-04-15T06:52:27.440Z,1.80
2023-04-15T06:54:55.556Z,1.90
2023-04-15T06:57:25.083Z,2.05
2023-04-15T06:59:54.671Z,2.17
2023-04-15T07:02:23.107Z,2.13
2023-04-15T07:04:51.297Z,2.10
2023-04-15T07:07:19.738Z,2.22
2023-04-15T07:09:47.884Z,2.60
2023-04-15T07:12:15.988Z,2.40
2023-04-15T07:14:45.446Z,2.53
2023-04-15T07:17:14.018Z,2.90
2023-04-15T07:19:42.426Z,2.30
2023-04-15T07:22:10.830Z,1.55
2023-04-15T07:24:38.948Z,3.88
2023-04-15T07:27:07.303Z,3.83
2023-04-15T07:29:35.722Z,4.38
2023-04-15T07:32:06.020Z,5.00
2023-04-15T07:34:34.367Z,6.07
2023-04-15T07:37:02.686Z,3.78
2023-04-15T07:39:31.153Z,6.00
2023-04-15T07:42:00.213Z,7.05
2023-04-15T07:44:28.607Z,6.90
2023-04-15T07:46:56.807Z,7.50
2023-04-15T07:49:26.584Z,7.70
2023-04-15T07:51:54.982Z,8.27
2023-04-15T07:54:23.393Z,8.70
2023-04-15T07:56:51.458Z,8.20
2023-04-15T07:59:19.598Z,7.65
2023-04-15T08:01:47.772Z,8.20
2023-04-15T08:04:16.121Z,7.70
2023-04-15T08:06:45.950Z,8.15
2023-04-15T08:09:14.016Z,9.95
2023-04-15T08:11:42.580Z,7.32
2023-04-15T08:14:10.696Z,7.50
2023-04-15T08:16:39.230Z,9.57
2023-04-15T08:19:07.469Z,9.43
2023-04-15T08:21:35.968Z,8.00
2023-04-15T08:24:05.618Z,8.95
2023-04-15T08:26:34.088Z,10.70
2023-04-15T08:29:02.639Z,9.77
2023-04-15T08:31:31.341Z,3.53
2023-04-15T08:33:59.593Z,9.73
2023-04-15T08:36:28.779Z,9.35
2023-04-15T08:38:56.856Z,11.43
2023-04-15T08:41:27.938Z,10.65
2023-04-15T08:43:59.748Z,9.38
2023-04-15T08:46:28.813Z,10.10
2023-04-15T08:48:58.934Z,10.98
2023-04-15T08:51:27.914Z,3.95
2023-04-15T08:53:56.587Z,10.38
2023-04-15T08:56:28.031Z,11.82
2023-04-15T08:58:56.330Z,7.03
2023-04-15T09:01:24.979Z,10.05
2023-04-15T09:03:55.066Z,12.57
2023-04-15T09:06:24.384Z,10.00
2023-04-15T09:08:52.984Z,11.27
2023-04-15T09:11:23.044Z,11.55
2023-04-15T09:13:52.633Z,11.45
2023-04-15T09:16:21.068Z,10.82
2023-04-15T09:18:49.197Z,10.32
2023-04-15T09:21:19.631Z,4.25
2023-04-15T09:23:58.952Z,9.73
2023-04-15T09:26:35.004Z,10.75
2023-04-15T09:29:09.266Z,13.10
2023-04-15T09:31:37.976Z,12.95
2023-04-15T09:34:06.953Z,7.47
2023-04-15T09:36:54.608Z,12.63
2023-04-15T09:39:22.793Z,12.85
2023-04-15T09:42:08.194Z,13.80
2023-04-15T09:44:38.282Z,14.55
2023-04-15T09:47:07.704Z,10.55
2023-04-15T09:49:36.131Z,14.25
2023-04-15T09:52:06.479Z,11.85
2023-04-15T09:54:36.666Z,7.07
2023-04-15T09:57:10.528Z,8.43
2023-04-15T09:59:40.945Z,14.80
2023-04-15T10:02:09.851Z,13.57
2023-04-15T10:04:41.663Z,14.85
2023-04-15T10:07:10.643Z,14.65
2023-04-15T10:09:40.365Z,10.57
2023-04-15T10:12:08.515Z,12.75
2023-04-15T10:14:39.736Z,6.82
2023-04-15T10:17:09.485Z,12.18
2023-04-15T10:19:39.664Z,14.55
2023-04-15T10:22:08.677Z,13.18
2023-04-15T10:24:37.548Z,15.55
2023-04-15T10:27:06.883Z,14.25
2023-04-15T10:29:36.116Z,13.88
2023-04-15T10:32:06.291Z,12.45
2023-04-15T10:34:34.850Z,12.43
2023-04-15T10:37:04.218Z,13.90
2023-04-15T10:39:44.469Z,14.88
2023-04-15T10:42:13.741Z,8.88
2023-04-15T10:44:44.814Z,14.98
2023-04-15T10:47:18.611Z,12.38
2023-04-15T10:49:49.129Z,16.00
2023-04-15T10:52:18.661Z,14.15
2023-04-15T10:54:46.815Z,11.10
2023-04-15T10:57:23.883Z,14.00
2023-04-15T11:00:06.595Z,13.85
2023-04-15T11:02:44.936Z,13.63
2023-04-15T11:05:14.514Z,11.73
2023-04-15T11:07:50.474Z,15.15
2023-04-15T11:10:53.721Z,14.90
2023-04-15T11:13:25.230Z,14.50
2023-04-15T11:15:58.696Z,15.13
2023-04-15T11:18:30.559Z,14.57
2023-04-15T11:21:01.364Z,14.45
2023-04-15T11:23:32.538Z,12.88
2023-04-15T11:26:01.451Z,11.32
2023-04-15T11:28:31.024Z,12.13
2023-04-15T11:30:59.898Z,13.35
2023-04-15T11:33:29.370Z,13.93
2023-04-15T11:35:57.472Z,14.38
2023-04-15T11:38:26.013Z,13.73
2023-04-15T11:40:54.132Z,13.10
2023-04-15T11:43:23.555Z,13.10
2023-04-15T11:45:56.621Z,13.43
2023-04-15T11:48:28.155Z,12.85
2023-04-15T11:50:59.241Z,13.02
2023-04-15T11:53:38.551Z,13.52
2023-04-15T11:56:07.972Z,13.18
2023-04-15T11:58:38.374Z,13.80
2023-04-15T12:01:08.218Z,13.70
2023-04-15T12:03:41.339Z,11.85
2023-04-15T12:06:18.198Z,14.20
2023-04-15T12:09:11.393Z,13.55
2023-04-15T12:11:44.710Z,12.23
2023-04-15T12:14:23.954Z,12.30
2023-04-15T12:16:54.977Z,12.23
2023-04-15T12:19:28.025Z,14.25
2023-04-15T12:22:00.888Z,13.48
2023-04-15T12:24:29.362Z,13.77
2023-04-15T12:26:59.004Z,14.43
2023-04-15T12:29:28.857Z,12.88
2023-04-15T12:31:58.567Z,13.32
2023-04-15T12:34:31.278Z,11.43
2023-04-15T12:37:03.201Z,13.30
2023-04-15T12:39:33.468Z,13.23
2023-04-15T12:42:01.891Z,12.15
2023-04-15T12:44:30.352Z,12.55
2023-04-15T12:47:00.521Z,12.38
2023-04-15T12:49:29.699Z,13.00
2023-04-15T12:52:00.774Z,13.45
2023-04-15T12:54:29.327Z,13.07
2023-04-15T12:56:58.012Z,11.73
2023-04-15T12:59:26.444Z,11.45
2023-04-15T13:01:55.434Z,11.80
2023-04-15T13:04:24.127Z,10.93
2023-04-15T13:06:52.819Z,10.20
2023-04-15T13:09:22.624Z,14.13
2023-04-15T13:11:52.756Z,13.52
2023-04-15T13:14:21.019Z,10.95
2023-04-15T13:16:49.399Z,12.95
2023-04-15T13:19:17.814Z,13.10
2023-04-15T13:21:46.097Z,12.98
2023-04-15T13:24:14.484Z,12.65
2023-04-15T13:26:43.972Z,12.30
2023-04-15T13:29:13.562Z,10.85
2023-04-15T13:31:42.005Z,12.02
2023-04-15T13:34:10.201Z,12.15
2023-04-15T13:36:38.312Z,12.43
2023-04-15T13:39:06.628Z,12.57
2023-04-15T13:41:34.716Z,11.85
2023-04-15T13:44:05.423Z,12.75
2023-04-15T13:46:34.420Z,12.57
2023-04-15T13:49:02.823Z,12.63
2023-04-15T13:51:31.058Z,12.77
2023-04-15T13:53:59.228Z,11.25
2023-04-15T13:56:27.325Z,11.60
2023-04-15T13:58:59.009Z,10.85
2023-04-15T14:01:28.553Z,10.07
2023-04-15T14:03:56.859Z,10.02
2023-04-15T14:06:26.258Z,9.38
2023-04-15T14:08:54.648Z,9.75
2023-04-15T14:11:23.007Z,9.95
2023-04-15T14:13:51.155Z,9.45
2023-04-15T14:16:19.291Z,8.05
2023-04-15T14:18:48.861Z,8.30
2023-04-15T14:21:16.971Z,8.38
2023-04-15T14:23:45.265Z,8.77
2023-04-15T14:26:13.781Z,7.38
2023-04-15T14:28:42.892Z,8.88
2023-04-15T14:31:10.991Z,8.82
2023-04-15T14:33:39.239Z,8.55
2023-04-15T14:36:10.472Z,8.30
2023-04-15T14:38:40.418Z,8.15
2023-04-15T14:41:09.472Z,8.20
2023-04-15T14:43:38.448Z,7.32
2023-04-15T14:46:07.098Z,7.90
2023-04-15T14:48:35.394Z,7.50
2023-04-15T14:51:03.671Z,7.80
2023-04-15T14:53:33.115Z,6.78
2023-04-15T14:56:01.295Z,7.95
2023-04-15T14:58:29.368Z,7.32
2023-04-15T15:00:57.488Z,7.15
2023-04-15T15:03:26.112Z,6.78
2023-04-15T15:05:54.350Z,6.45
2023-04-15T15:08:22.631Z,6.82
2023-04-15T15:10:52.086Z,6.90
2023-04-15T15:13:20.197Z,6.82
2023-04-15T15:15:50.252Z,6.07
2023-04-15T15:18:19.639Z,6.93
2023-04-15T15:20:47.973Z,6.82
2023-04-15T15:23:16.454Z,7.30
2023-04-15T15:25:45.095Z,7.38
2023-04-15T15:28:14.624Z,7.35
2023-04-15T15:30:42.726Z,7.40
2023-04-15T15:33:10.858Z,6.75
2023-04-15T15:35:38.967Z,8.02
2023-04-15T15:38:07.078Z,6.72
2023-04-15T15:40:35.562Z,7.18
2023-04-15T15:43:03.818Z,6.20
2023-04-15T15:45:33.640Z,6.20
2023-04-15T15:48:02.918Z,6.90
2023-04-15T15:50:31.111Z,8.13
2023-04-15T15:52:59.895Z,6.47
2023-04-15T15:55:28.163Z,6.88
2023-04-15T15:57:56.528Z,6.97
2023-04-15T16:00:24.626Z,7.28
2023-04-15T16:05:28.783Z,7.05
2023-04-15T16:07:57.300Z,6.13
2023-04-15T16:10:25.599Z,6.00
2023-04-15T16:12:53.767Z,7.18
2023-04-15T16:15:22.012Z,7.20
2023-04-15T16:17:50.157Z,6.13
2023-04-15T16:20:19.950Z,6.85
2023-04-15T16:22:48.107Z,6.68
2023-04-15T16:25:16.222Z,7.07
2023-04-15T16:27:58.956Z,6.30
2023-04-15T16:30:30.100Z,7.72
2023-04-15T16:32:58.360Z,7.53
2023-04-15T16:35:28.406Z,7.20
2023-04-15T16:37:56.551Z,7.45
2023-04-15T16:40:24.973Z,7.40
2023-04-15T16:42:53.686Z,7.30
2023-04-15T16:45:21.786Z,8.20
2023-04-15T16:47:50.025Z,7.80
2023-04-15T16:50:18.475Z,8.80
2023-04-15T16:52:47.978Z,6.72
2023-04-15T16:55:16.139Z,7.43
2023-04-15T16:58:02.027Z,6.00
2023-04-15T17:00:32.305Z,6.60
2023-04-15T17:03:01.279Z,6.47
2023-04-15T17:05:30.666Z,6.60
2023-04-15T17:08:00.221Z,7.38
2023-04-15T17:10:28.972Z,7.60
2023-04-15T17:12:58.052Z,6.78
2023-04-15T17:15:26.449Z,6.10
2023-04-15T17:17:54.716Z,7.30
2023-04-15T17:20:23.322Z,8.10
2023-04-15T17:22:51.500Z,9.02
2023-04-15T17:25:21.371Z,8.38
2023-04-15T17:27:49.497Z,7.78
2023-04-15T17:30:17.637Z,7.85
2023-04-15T17:32:46.037Z,7.38
2023-04-15T17:35:14.261Z,8.13
2023-04-15T17:37:42.385Z,6.68
2023-04-15T17:40:11.480Z,7.65
2023-04-15T17:42:41.750Z,7.38
2023-04-15T17:45:10.557Z,7.15
2023-04-15T17:47:39.061Z,7.15
2023-04-15T17:50:08.602Z,6.88
2023-04-15T17:52:36.968Z,7.00
2023-04-15T17:55:05.492Z,7.05
2023-04-15T17:57:33.625Z,6.00
2023-04-15T18:00:03.360Z,6.57
2023-04-15T18:02:32.281Z,6.50
2023-04-15T18:05:02.069Z,5.18
2023-04-15T18:07:30.691Z,5.15
2023-04-15T18:09:59.236Z,6.57
2023-04-15T18:12:27.499Z,6.60
2023-04-15T18:14:55.574Z,6.18
2023-04-15T18:17:25.125Z,6.10
2023-04-15T18:19:53.468Z,6.38
2023-04-15T18:22:21.611Z,6.43
2023-04-15T18:24:50.911Z,6.85
2023-04-15T18:27:19.369Z,4.32
2023-04-15T18:29:47.558Z,6.68
2023-04-15T18:32:15.651Z,6.13
2023-04-15T18:34:45.140Z,5.60
2023-04-15T18:37:13.284Z,6.28
2023-04-15T18:39:41.723Z,6.65
2023-04-15T18:42:10.108Z,6.65
2023-04-15T18:44:38.214Z,6.75
2023-04-15T18:47:06.410Z,6.70
2023-04-15T18:49:34.807Z,6.63
2023-04-15T18:52:04.333Z,6.28
2023-04-15T18:54:32.472Z,6.80
2023-04-15T18:57:01.048Z,6.72
2023-04-15T18:59:30.821Z,5.82
2023-04-15T19:01:59.780Z,6.22
2023-04-15T19:04:29.454Z,6.70
2023-04-15T19:06:58.873Z,5.90
2023-04-15T19:09:29.708Z,6.82
2023-04-15T19:11:58.060Z,6.05
2023-04-15T19:14:26.217Z,7.70
2023-04-15T19:16:54.399Z,8.27
2023-04-15T19:19:22.733Z,6.20
2023-04-15T19:21:50.988Z,6.60
2023-04-15T19:24:19.588Z,6.93
2023-04-15T19:26:51.216Z,7.78
2023-04-15T19:29:19.386Z,9.02
2023-04-15T19:31:47.454Z,6.60
2023-04-15T19:34:15.759Z,7.50
2023-04-15T19:36:44.207Z,8.77
2023-04-15T19:39:12.295Z,8.73
2023-04-15T19:41:40.787Z,8.10
2023-04-15T19:44:12.796Z,8.70
2023-04-15T19:46:41.182Z,8.20
2023-04-15T19:49:09.329Z,9.90
2023-04-15T19:51:37.510Z,9.50
2023-04-15T19:54:05.940Z,8.70
2023-04-15T19:56:34.736Z,7.55
2023-04-15T19:59:02.946Z,10.32
2023-04-15T20:01:32.874Z,9.43
2023-04-15T20:04:03.303Z,9.82
2023-04-15T20:06:32.040Z,9.00
2023-04-15T20:09:00.242Z,10.18
2023-04-15T20:12:05.233Z,10.32
2023-04-15T20:14:17.621Z,10.15
2023-04-15T20:16:48.128Z,9.77
2023-04-15T20:19:16.209Z,10.38
2023-04-15T20:21:44.547Z,9.55
2023-04-15T20:24:13.003Z,9.90
2023-04-15T20:26:41.211Z,9.43
2023-04-15T20:29:09.333Z,10.60
2023-04-15T20:31:37.531Z,9.75
2023-04-15T20:34:07.813Z,10.10
2023-04-15T20:36:37.556Z,8.80
2023-04-15T20:39:05.876Z,10.30
2023-04-15T20:41:34.130Z,10.75
2023-04-15T20:44:02.247Z,9.70
2023-04-15T20:46:30.945Z,10.55
2023-04-15T20:48:59.097Z,9.75
2023-04-15T20:51:31.358Z,11.07
2023-04-15T20:53:59.520Z,9.40
2023-04-15T20:56:27.641Z,11.07
2023-04-15T20:58:56.226Z,10.43
2023-04-15T21:01:24.790Z,10.85
2023-04-15T21:03:52.989Z,12.48
2023-04-15T21:06:21.154Z,11.95
2023-04-15T21:08:52.316Z,12.15
2023-04-15T21:11:38.835Z,11.95
2023-04-15T21:14:09.211Z,7.60
2023-04-15T21:16:37.423Z,11.10
2023-04-15T21:19:05.787Z,11.02
2023-04-15T21:21:34.200Z,10.93
2023-04-15T21:24:03.704Z,12.63
2023-04-15T21:26:31.847Z,12.65
2023-04-15T21:28:59.956Z,13.85
2023-04-15T21:31:28.161Z,11.68
2023-04-15T21:33:56.343Z,12.95
2023-04-15T21:36:24.470Z,13.48
2023-04-15T21:38:52.976Z,13.43
2023-04-15T21:41:22.486Z,10.60
2023-04-15T21:43:50.980Z,9.90
2023-04-15T21:46:23.321Z,12.70
2023-04-15T21:48:54.921Z,13.05
2023-04-15T21:51:23.817Z,14.15
2023-04-15T21:53:52.734Z,13.50
2023-04-15T21:56:24.470Z,12.93
2023-04-15T21:58:57.132Z,13.05
2023-04-15T22:01:25.698Z,5.10
2023-04-15T22:03:54.273Z,12.23
2023-04-15T22:06:22.522Z,13.52
2023-04-15T22:08:56.933Z,14.60
2023-04-15T22:11:30.963Z,12.23
2023-04-15T22:14:00.039Z,13.50
2023-04-15T22:16:28.584Z,12.90
2023-04-15T22:18:57.344Z,13.02
2023-04-15T22:21:25.504Z,13.75
2023-04-15T22:24:32.224Z,13.70
2023-04-15T22:26:43.910Z,11.90
2023-04-15T22:29:12.444Z,11.95
2023-04-15T22:31:40.674Z,13.70
2023-04-15T22:34:08.899Z,14.68
2023-04-15T22:36:37.315Z,12.77
2023-04-15T22:39:05.928Z,13.38
2023-04-15T22:41:34.704Z,13.85
2023-04-15T22:44:04.171Z,13.43
2023-04-15T22:46:32.601Z,13.05
2023-04-15T22:49:01.215Z,14.90
2023-04-15T22:51:29.360Z,13.45
2023-04-15T22:53:57.805Z,13.38
2023-04-15T22:56:25.924Z,13.63
2023-04-15T22:58:54.425Z,12.95
2023-04-15T23:01:23.967Z,14.55
2023-04-15T23:03:56.844Z,15.02
2023-04-15T23:06:35.667Z,14.30
2023-04-15T23:09:03.818Z,14.85
2023-04-15T23:11:31.982Z,14.35
2023-04-15T23:14:00.146Z,16.40
2023-04-15T23:16:30.233Z,13.52
2023-04-15T23:18:58.371Z,14.15
2023-04-15T23:21:27.993Z,13.90
2023-04-15T23:23:56.142Z,13.63
2023-04-15T23:26:24.600Z,14.38
2023-04-15T23:28:52.933Z,14.43
2023-04-15T23:31:21.072Z,13.60
2023-04-15T23:33:51.007Z,15.38
2023-04-15T23:36:19.398Z,13.25
2023-04-15T23:38:48.222Z,12.02
2023-04-15T23:41:16.395Z,14.43
2023-04-15T23:43:44.771Z,14.57
2023-04-15T23:46:13.142Z,14.95
2023-04-15T23:48:41.944Z,11.10
2023-04-15T23:51:11.766Z,13.32
2023-04-15T23:53:40.071Z,15.20
2023-04-15T23:56:08.701Z,12.55
2023-04-15T23:58:36.824Z,15.75
